sensor_id;sensor_type;location;lat;lon;timestamp;P1;durP1;ratioP1;P2;durP2;ratioP2
79454;SDS011;68900;52.134;5.420;2023-12-04T00:02:15;14.90;;;6.32;;
79454;SDS011;68900;52.134;5.420;2023-12-04T00:04:42;16.17;;;6.22;;
79454;SDS011;68900;52.134;5.420;2023-12-04T00:07:23;13.45;;;5.90;;
79454;SDS011;68900;52.134;5.420;2023-12-04T00:10:24;15.23;;;5.63;;
79454;SDS011;68900;52.134;5.420;2023-12-04T00:13:07;16.80;;;6.10;;
79454;SDS011;68900;52.134;5.420;2023-12-04T00:15:44;15.68;;;5.80;;
79454;SDS011;68900;52.134;5.420;2023-12-04T00:18:20;14.98;;;6.00;;
79454;SDS011;68900;52.134;5.420;2023-12-04T00:20:53;15.70;;;6.05;;
79454;SDS011;68900;52.134;5.420;2023-12-04T00:23:27;14.55;;;6.72;;
79454;SDS011;68900;52.134;5.420;2023-12-04T00:26:19;16.60;;;5.78;;
79454;SDS011;68900;52.134;5.420;2023-12-04T00:28:49;14.80;;;4.85;;
79454;SDS011;68900;52.134;5.420;2023-12-04T00:31:18;14.20;;;6.18;;
79454;SDS011;68900;52.134;5.420;2023-12-04T00:33:51;16.52;;;6.53;;
79454;SDS011;68900;52.134;5.420;2023-12-04T00:36:18;18.90;;;6.75;;
79454;SDS011;68900;52.134;5.420;2023-12-04T00:38:48;14.38;;;6.15;;
79454;SDS011;68900;52.134;5.420;2023-12-04T00:41:16;16.70;;;6.63;;
79454;SDS011;68900;52.134;5.420;2023-12-04T00:43:43;17.23;;;6.40;;
79454;SDS011;68900;52.134;5.420;2023-12-04T00:46:13;18.15;;;6.35;;
79454;SDS011;68900;52.134;5.420;2023-12-04T00:48:42;20.35;;;7.20;;
79454;SDS011;68900;52.134;5.420;2023-12-04T00:51:08;16.88;;;6.85;;
79454;SDS011;68900;52.134;5.420;2023-12-04T00:53:41;15.80;;;6.53;;
79454;SDS011;68900;52.134;5.420;2023-12-04T00:56:10;16.25;;;5.70;;
79454;SDS011;68900;52.134;5.420;2023-12-04T00:58:49;16.55;;;7.13;;
79454;SDS011;68900;52.134;5.420;2023-12-04T01:01:16;17.65;;;7.07;;
79454;SDS011;68900;52.134;5.420;2023-12-04T01:03:48;17.65;;;6.40;;
79454;SDS011;68900;52.134;5.420;2023-12-04T01:06:22;17.35;;;6.82;;
79454;SDS011;68900;52.134;5.420;2023-12-04T01:08:51;17.20;;;7.03;;
79454;SDS011;68900;52.134;5.420;2023-12-04T01:11:19;16.05;;;6.25;;
79454;SDS011;68900;52.134;5.420;2023-12-04T01:14:00;17.85;;;6.75;;
79454;SDS011;68900;52.134;5.420;2023-12-04T01:16:27;15.38;;;6.53;;
79454;SDS011;68900;52.134;5.420;2023-12-04T01:18:55;17.73;;;6.88;;
79454;SDS011;68900;52.134;5.420;2023-12-04T01:21:25;17.77;;;6.93;;
79454;SDS011;68900;52.134;5.420;2023-12-04T01:26:24;14.88;;;6.53;;
79454;SDS011;68900;52.134;5.420;2023-12-04T01:28:51;20.67;;;7.63;;
79454;SDS011;68900;52.134;5.420;2023-12-04T01:31:20;17.85;;;6.78;;
79454;SDS011;68900;52.134;5.420;2023-12-04T01:33:58;15.98;;;6.82;;
79454;SDS011;68900;52.134;5.420;2023-12-04T01:36:27;18.52;;;7.25;;
79454;SDS011;68900;52.134;5.420;2023-12-04T01:38:54;19.00;;;8.05;;
79454;SDS011;68900;52.134;5.420;2023-12-04T01:41:36;18.20;;;6.93;;
79454;SDS011;68900;52.134;5.420;2023-12-04T01:44:03;18.63;;;7.55;;
79454;SDS011;68900;52.134;5.420;2023-12-04T01:46:31;16.88;;;6.80;;
79454;SDS011;68900;52.134;5.420;2023-12-04T01:48:58;19.13;;;6.80;;
79454;SDS011;68900;52.134;5.420;2023-12-04T01:51:31;19.60;;;6.65;;
79454;SDS011;68900;52.134;5.420;2023-12-04T01:54:03;17.45;;;7.20;;
79454;SDS011;68900;52.134;5.420;2023-12-04T01:56:31;18.75;;;9.07;;
79454;SDS011;68900;52.134;5.420;2023-12-04T01:59:01;18.48;;;7.10;;
79454;SDS011;68900;52.134;5.420;2023-12-04T02:01:28;19.60;;;7.45;;
79454;SDS011;68900;52.134;5.420;2023-12-04T02:04:00;18.80;;;7.80;;
79454;SDS011;68900;52.134;5.420;2023-12-04T02:06:28;19.02;;;6.88;;
79454;SDS011;68900;52.134;5.420;2023-12-04T02:09:00;19.50;;;7.13;;
79454;SDS011;68900;52.134;5.420;2023-12-04T02:11:28;20.50;;;7.70;;
79454;SDS011;68900;52.134;5.420;2023-12-04T02:13:55;18.05;;;7.18;;
79454;SDS011;68900;52.134;5.420;2023-12-04T02:16:22;18.08;;;7.60;;
79454;SDS011;68900;52.134;5.420;2023-12-04T02:18:52;18.98;;;7.78;;
79454;SDS011;68900;52.134;5.420;2023-12-04T02:21:22;16.75;;;6.35;;
79454;SDS011;68900;52.134;5.420;2023-12-04T02:23:52;21.38;;;8.38;;
79454;SDS011;68900;52.134;5.420;2023-12-04T02:26:24;18.23;;;7.03;;
79454;SDS011;68900;52.134;5.420;2023-12-04T02:29:14;17.95;;;7.30;;
79454;SDS011;68900;52.134;5.420;2023-12-04T02:31:47;16.38;;;7.45;;
79454;SDS011;68900;52.134;5.420;2023-12-04T02:34:16;18.38;;;7.13;;
79454;SDS011;68900;52.134;5.420;2023-12-04T02:36:47;21.42;;;8.35;;
79454;SDS011;68900;52.134;5.420;2023-12-04T02:39:18;19.45;;;7.88;;
79454;SDS011;68900;52.134;5.420;2023-12-04T02:41:51;16.17;;;6.47;;
79454;SDS011;68900;52.134;5.420;2023-12-04T02:44:19;19.23;;;6.80;;
79454;SDS011;68900;52.134;5.420;2023-12-04T02:46:47;19.30;;;7.47;;
79454;SDS011;68900;52.134;5.420;2023-12-04T02:49:14;20.58;;;7.90;;
79454;SDS011;68900;52.134;5.420;2023-12-04T02:51:41;18.45;;;7.30;;
79454;SDS011;68900;52.134;5.420;2023-12-04T02:54:08;17.13;;;6.68;;
79454;SDS011;68900;52.134;5.420;2023-12-04T02:56:35;17.55;;;6.53;;
79454;SDS011;68900;52.134;5.420;2023-12-04T02:59:02;18.13;;;6.82;;
79454;SDS011;68900;52.134;5.420;2023-12-04T03:01:29;19.10;;;7.32;;
79454;SDS011;68900;52.134;5.420;2023-12-04T03:03:56;20.00;;;7.30;;
79454;SDS011;68900;52.134;5.420;2023-12-04T03:06:25;18.40;;;7.30;;
79454;SDS011;68900;52.134;5.420;2023-12-04T03:08:52;16.52;;;6.60;;
79454;SDS011;68900;52.134;5.420;2023-12-04T03:11:19;16.85;;;6.90;;
79454;SDS011;68900;52.134;5.420;2023-12-04T03:13:46;16.17;;;6.43;;
79454;SDS011;68900;52.134;5.420;2023-12-04T03:16:19;20.45;;;7.03;;
79454;SDS011;68900;52.134;5.420;2023-12-04T03:18:47;17.98;;;7.25;;
79454;SDS011;68900;52.134;5.420;2023-12-04T03:21:14;14.00;;;6.03;;
79454;SDS011;68900;52.134;5.420;2023-12-04T03:23:44;15.40;;;6.47;;
79454;SDS011;68900;52.134;5.420;2023-12-04T03:26:11;18.73;;;6.88;;
79454;SDS011;68900;52.134;5.420;2023-12-04T03:28:40;17.33;;;6.28;;
79454;SDS011;68900;52.134;5.420;2023-12-04T03:31:13;18.25;;;7.55;;
79454;SDS011;68900;52.134;5.420;2023-12-04T03:33:41;21.70;;;7.50;;
79454;SDS011;68900;52.134;5.420;2023-12-04T03:36:08;15.60;;;6.68;;
79454;SDS011;68900;52.134;5.420;2023-12-04T03:38:38;18.05;;;6.55;;
79454;SDS011;68900;52.134;5.420;2023-12-04T03:41:15;17.55;;;6.70;;
79454;SDS011;68900;52.134;5.420;2023-12-04T03:43:48;17.90;;;7.57;;
79454;SDS011;68900;52.134;5.420;2023-12-04T03:46:21;15.25;;;6.38;;
79454;SDS011;68900;52.134;5.420;2023-12-04T03:55:16;16.58;;;6.40;;
79454;SDS011;68900;52.134;5.420;2023-12-04T03:58:15;15.40;;;6.30;;
79454;SDS011;68900;52.134;5.420;2023-12-04T04:01:41;15.50;;;6.07;;
79454;SDS011;68900;52.134;5.420;2023-12-04T04:04:36;14.50;;;6.05;;
79454;SDS011;68900;52.134;5.420;2023-12-04T04:07:40;12.93;;;5.03;;
79454;SDS011;68900;52.134;5.420;2023-12-04T04:10:25;18.60;;;6.55;;
79454;SDS011;68900;52.134;5.420;2023-12-04T04:13:47;15.13;;;6.18;;
79454;SDS011;68900;52.134;5.420;2023-12-04T04:17:06;13.77;;;6.25;;
79454;SDS011;68900;52.134;5.420;2023-12-04T04:30:11;13.43;;;5.88;;
79454;SDS011;68900;52.134;5.420;2023-12-04T04:40:42;13.50;;;6.05;;
79454;SDS011;68900;52.134;5.420;2023-12-04T04:48:23;15.18;;;5.65;;
79454;SDS011;68900;52.134;5.420;2023-12-04T05:03:09;13.75;;;5.22;;
79454;SDS011;68900;52.134;5.420;2023-12-04T05:09:48;13.05;;;5.50;;
79454;SDS011;68900;52.134;5.420;2023-12-04T05:12:37;16.00;;;5.78;;
79454;SDS011;68900;52.134;5.420;2023-12-04T05:23:43;13.98;;;5.05;;
79454;SDS011;68900;52.134;5.420;2023-12-04T05:26:39;15.82;;;6.57;;
79454;SDS011;68900;52.134;5.420;2023-12-04T05:33:37;11.82;;;5.22;;
79454;SDS011;68900;52.134;5.420;2023-12-04T05:36:58;13.20;;;4.43;;
79454;SDS011;68900;52.134;5.420;2023-12-04T05:40:26;11.00;;;4.70;;
79454;SDS011;68900;52.134;5.420;2023-12-04T05:47:43;13.48;;;5.35;;
79454;SDS011;68900;52.134;5.420;2023-12-04T06:17:47;11.07;;;4.35;;
79454;SDS011;68900;52.134;5.420;2023-12-04T06:28:40;10.77;;;4.28;;
79454;SDS011;68900;52.134;5.420;2023-12-04T06:38:35;10.95;;;3.78;;
79454;SDS011;68900;52.134;5.420;2023-12-04T06:41:21;11.68;;;4.15;;
79454;SDS011;68900;52.134;5.420;2023-12-04T06:47:37;11.05;;;4.32;;
79454;SDS011;68900;52.134;5.420;2023-12-04T06:50:18;12.63;;;4.43;;
79454;SDS011;68900;52.134;5.420;2023-12-04T07:29:52;9.98;;;4.47;;
79454;SDS011;68900;52.134;5.420;2023-12-04T07:32:36;11.52;;;4.35;;
79454;SDS011;68900;52.134;5.420;2023-12-04T07:35:21;10.32;;;4.95;;
79454;SDS011;68900;52.134;5.420;2023-12-04T07:37:53;11.93;;;5.57;;
79454;SDS011;68900;52.134;5.420;2023-12-04T07:40:22;11.90;;;5.00;;
79454;SDS011;68900;52.134;5.420;2023-12-04T07:45:31;11.02;;;4.47;;
79454;SDS011;68900;52.134;5.420;2023-12-04T07:51:50;9.60;;;4.07;;
79454;SDS011;68900;52.134;5.420;2023-12-04T07:54:17;12.05;;;4.32;;
79454;SDS011;68900;52.134;5.420;2023-12-04T07:56:44;10.07;;;4.18;;
79454;SDS011;68900;52.134;5.420;2023-12-04T07:59:13;11.35;;;4.80;;
79454;SDS011;68900;52.134;5.420;2023-12-04T08:01:43;11.07;;;4.57;;
79454;SDS011;68900;52.134;5.420;2023-12-04T08:04:16;10.00;;;4.65;;
79454;SDS011;68900;52.134;5.420;2023-12-04T08:06:42;10.23;;;3.97;;
79454;SDS011;68900;52.134;5.420;2023-12-04T08:09:11;9.50;;;4.63;;
79454;SDS011;68900;52.134;5.420;2023-12-04T08:11:38;11.63;;;4.35;;
79454;SDS011;68900;52.134;5.420;2023-12-04T08:14:05;8.73;;;4.07;;
79454;SDS011;68900;52.134;5.420;2023-12-04T08:16:32;11.45;;;4.45;;
79454;SDS011;68900;52.134;5.420;2023-12-04T08:18:59;10.95;;;4.40;;
79454;SDS011;68900;52.134;5.420;2023-12-04T08:21:27;9.15;;;4.45;;
79454;SDS011;68900;52.134;5.420;2023-12-04T08:23:55;9.15;;;4.15;;
79454;SDS011;68900;52.134;5.420;2023-12-04T08:26:22;10.60;;;4.38;;
79454;SDS011;68900;52.134;5.420;2023-12-04T08:28:51;9.32;;;4.00;;
79454;SDS011;68900;52.134;5.420;2023-12-04T08:31:20;10.60;;;4.38;;
79454;SDS011;68900;52.134;5.420;2023-12-04T08:33:47;9.43;;;4.55;;
79454;SDS011;68900;52.134;5.420;2023-12-04T08:36:14;9.00;;;4.30;;
79454;SDS011;68900;52.134;5.420;2023-12-04T08:38:41;9.68;;;3.80;;
79454;SDS011;68900;52.134;5.420;2023-12-04T08:41:08;8.02;;;3.75;;
79454;SDS011;68900;52.134;5.420;2023-12-04T08:43:35;9.73;;;4.47;;
79454;SDS011;68900;52.134;5.420;2023-12-04T08:46:02;11.25;;;4.78;;
79454;SDS011;68900;52.134;5.420;2023-12-04T08:48:29;10.05;;;4.40;;
79454;SDS011;68900;52.134;5.420;2023-12-04T08:50:58;8.57;;;3.72;;
79454;SDS011;68900;52.134;5.420;2023-12-04T08:53:24;8.95;;;4.32;;
79454;SDS011;68900;52.134;5.420;2023-12-04T08:55:51;11.00;;;4.38;;
79454;SDS011;68900;52.134;5.420;2023-12-04T08:58:19;8.63;;;3.72;;
79454;SDS011;68900;52.134;5.420;2023-12-04T09:00:46;8.63;;;3.65;;
79454;SDS011;68900;52.134;5.420;2023-12-04T09:03:13;8.32;;;4.10;;
79454;SDS011;68900;52.134;5.420;2023-12-04T09:05:51;11.63;;;4.65;;
79454;SDS011;68900;52.134;5.420;2023-12-04T09:08:19;9.45;;;4.35;;
79454;SDS011;68900;52.134;5.420;2023-12-04T09:11:01;8.18;;;3.70;;
79454;SDS011;68900;52.134;5.420;2023-12-04T09:13:48;9.10;;;4.05;;
79454;SDS011;68900;52.134;5.420;2023-12-04T09:16:15;9.40;;;4.43;;
79454;SDS011;68900;52.134;5.420;2023-12-04T09:18:42;9.65;;;4.10;;
79454;SDS011;68900;52.134;5.420;2023-12-04T09:21:09;8.93;;;3.55;;
79454;SDS011;68900;52.134;5.420;2023-12-04T09:23:36;8.50;;;3.80;;
79454;SDS011;68900;52.134;5.420;2023-12-04T09:26:02;8.32;;;3.67;;
79454;SDS011;68900;52.134;5.420;2023-12-04T09:28:29;9.82;;;4.40;;
79454;SDS011;68900;52.134;5.420;2023-12-04T09:30:56;7.72;;;4.10;;
79454;SDS011;68900;52.134;5.420;2023-12-04T09:33:25;9.00;;;4.05;;
79454;SDS011;68900;52.134;5.420;2023-12-04T09:35:53;8.05;;;3.50;;
79454;SDS011;68900;52.134;5.420;2023-12-04T09:38:19;9.52;;;4.43;;
79454;SDS011;68900;52.134;5.420;2023-12-04T09:40:46;8.73;;;4.05;;
79454;SDS011;68900;52.134;5.420;2023-12-04T09:43:13;11.00;;;4.40;;
79454;SDS011;68900;52.134;5.420;2023-12-04T09:45:43;9.38;;;4.20;;
79454;SDS011;68900;52.134;5.420;2023-12-04T09:48:10;11.88;;;3.88;;
79454;SDS011;68900;52.134;5.420;2023-12-04T09:50:38;8.38;;;3.92;;
79454;SDS011;68900;52.134;5.420;2023-12-04T09:53:05;8.82;;;4.68;;
79454;SDS011;68900;52.134;5.420;2023-12-04T09:55:36;9.23;;;3.90;;
79454;SDS011;68900;52.134;5.420;2023-12-04T09:58:03;8.15;;;3.90;;
79454;SDS011;68900;52.134;5.420;2023-12-04T10:00:34;16.52;;;3.90;;
79454;SDS011;68900;52.134;5.420;2023-12-04T10:05:48;9.90;;;3.90;;
79454;SDS011;68900;52.134;5.420;2023-12-04T10:08:15;8.50;;;3.80;;
79454;SDS011;68900;52.134;5.420;2023-12-04T10:10:43;9.38;;;4.30;;
79454;SDS011;68900;52.134;5.420;2023-12-04T10:13:13;10.13;;;3.72;;
79454;SDS011;68900;52.134;5.420;2023-12-04T10:16:01;10.23;;;3.58;;
79454;SDS011;68900;52.134;5.420;2023-12-04T10:18:30;7.30;;;3.78;;
79454;SDS011;68900;52.134;5.420;2023-12-04T10:20:58;8.57;;;3.92;;
79454;SDS011;68900;52.134;5.420;2023-12-04T10:23:39;9.18;;;4.25;;
79454;SDS011;68900;52.134;5.420;2023-12-04T10:26:14;8.73;;;3.63;;
79454;SDS011;68900;52.134;5.420;2023-12-04T10:28:57;9.98;;;3.70;;
79454;SDS011;68900;52.134;5.420;2023-12-04T10:31:34;8.23;;;3.78;;
79454;SDS011;68900;52.134;5.420;2023-12-04T10:34:04;9.10;;;3.90;;
79454;SDS011;68900;52.134;5.420;2023-12-04T10:36:31;7.95;;;3.90;;
79454;SDS011;68900;52.134;5.420;2023-12-04T10:39:00;7.55;;;3.58;;
79454;SDS011;68900;52.134;5.420;2023-12-04T10:41:28;6.57;;;3.35;;
79454;SDS011;68900;52.134;5.420;2023-12-04T10:43:57;8.60;;;3.70;;
79454;SDS011;68900;52.134;5.420;2023-12-04T10:46:35;8.90;;;3.63;;
79454;SDS011;68900;52.134;5.420;2023-12-04T10:49:03;8.45;;;3.85;;
79454;SDS011;68900;52.134;5.420;2023-12-04T10:51:32;7.82;;;3.30;;
79454;SDS011;68900;52.134;5.420;2023-12-04T10:54:03;7.50;;;3.75;;
79454;SDS011;68900;52.134;5.420;2023-12-04T10:56:38;9.45;;;4.20;;
79454;SDS011;68900;52.134;5.420;2023-12-04T10:59:11;7.60;;;3.83;;
79454;SDS011;68900;52.134;5.420;2023-12-04T11:01:42;8.57;;;4.10;;
79454;SDS011;68900;52.134;5.420;2023-12-04T11:04:13;8.32;;;4.28;;
79454;SDS011;68900;52.134;5.420;2023-12-04T11:06:45;6.40;;;3.47;;
79454;SDS011;68900;52.134;5.420;2023-12-04T11:09:15;8.55;;;3.88;;
79454;SDS011;68900;52.134;5.420;2023-12-04T11:14:18;7.45;;;3.60;;
79454;SDS011;68900;52.134;5.420;2023-12-04T11:16:51;8.52;;;3.63;;
79454;SDS011;68900;52.134;5.420;2023-12-04T11:19:27;8.93;;;3.88;;
79454;SDS011;68900;52.134;5.420;2023-12-04T11:21:59;10.80;;;3.83;;
79454;SDS011;68900;52.134;5.420;2023-12-04T11:24:31;10.65;;;4.32;;
79454;SDS011;68900;52.134;5.420;2023-12-04T11:26:58;8.55;;;3.75;;
79454;SDS011;68900;52.134;5.420;2023-12-04T11:29:25;9.43;;;4.22;;
79454;SDS011;68900;52.134;5.420;2023-12-04T11:31:55;10.27;;;4.25;;
79454;SDS011;68900;52.134;5.420;2023-12-04T11:34:24;11.63;;;4.60;;
79454;SDS011;68900;52.134;5.420;2023-12-04T11:36:51;9.40;;;4.80;;
79454;SDS011;68900;52.134;5.420;2023-12-04T11:39:20;12.43;;;4.65;;
79454;SDS011;68900;52.134;5.420;2023-12-04T11:41:52;9.30;;;4.13;;
79454;SDS011;68900;52.134;5.420;2023-12-04T11:44:19;9.52;;;4.30;;
79454;SDS011;68900;52.134;5.420;2023-12-04T11:47:05;9.07;;;4.53;;
79454;SDS011;68900;52.134;5.420;2023-12-04T11:49:32;9.57;;;4.57;;
79454;SDS011;68900;52.134;5.420;2023-12-04T11:52:00;12.60;;;5.25;;
79454;SDS011;68900;52.134;5.420;2023-12-04T12:29:59;11.07;;;4.32;;
79454;SDS011;68900;52.134;5.420;2023-12-04T12:32:26;9.40;;;4.50;;
79454;SDS011;68900;52.134;5.420;2023-12-04T12:34:58;9.00;;;4.53;;
79454;SDS011;68900;52.134;5.420;2023-12-04T12:37:25;10.82;;;4.70;;
79454;SDS011;68900;52.134;5.420;2023-12-04T12:39:54;9.90;;;4.38;;
79454;SDS011;68900;52.134;5.420;2023-12-04T12:42:27;12.35;;;4.95;;
79454;SDS011;68900;52.134;5.420;2023-12-04T12:44:59;11.25;;;4.65;;
79454;SDS011;68900;52.134;5.420;2023-12-04T12:47:30;14.10;;;6.18;;
79454;SDS011;68900;52.134;5.420;2023-12-04T12:49:57;8.57;;;4.80;;
79454;SDS011;68900;52.134;5.420;2023-12-04T12:52:27;12.52;;;5.03;;
79454;SDS011;68900;52.134;5.420;2023-12-04T12:55:00;13.32;;;4.97;;
79454;SDS011;68900;52.134;5.420;2023-12-04T12:57:27;11.38;;;4.88;;
79454;SDS011;68900;52.134;5.420;2023-12-04T12:59:54;9.52;;;4.72;;
79454;SDS011;68900;52.134;5.420;2023-12-04T13:02:24;10.35;;;5.22;;
79454;SDS011;68900;52.134;5.420;2023-12-04T13:04:51;12.00;;;5.45;;
79454;SDS011;68900;52.134;5.420;2023-12-04T13:07:18;9.90;;;4.55;;
79454;SDS011;68900;52.134;5.420;2023-12-04T13:09:45;12.07;;;5.60;;
79454;SDS011;68900;52.134;5.420;2023-12-04T13:12:12;12.65;;;5.30;;
79454;SDS011;68900;52.134;5.420;2023-12-04T13:14:41;8.93;;;4.60;;
79454;SDS011;68900;52.134;5.420;2023-12-04T13:17:08;10.35;;;5.18;;
79454;SDS011;68900;52.134;5.420;2023-12-04T13:19:43;9.60;;;5.10;;
79454;SDS011;68900;52.134;5.420;2023-12-04T13:22:10;11.63;;;5.15;;
79454;SDS011;68900;52.134;5.420;2023-12-04T13:24:39;11.13;;;4.82;;
79454;SDS011;68900;52.134;5.420;2023-12-04T13:27:13;11.90;;;5.03;;
79454;SDS011;68900;52.134;5.420;2023-12-04T13:29:43;12.05;;;5.28;;
79454;SDS011;68900;52.134;5.420;2023-12-04T13:32:09;11.48;;;5.50;;
79454;SDS011;68900;52.134;5.420;2023-12-04T13:34:36;9.25;;;3.92;;
79454;SDS011;68900;52.134;5.420;2023-12-04T13:37:09;12.93;;;5.80;;
79454;SDS011;68900;52.134;5.420;2023-12-04T13:39:42;11.10;;;5.57;;
79454;SDS011;68900;52.134;5.420;2023-12-04T13:42:15;10.98;;;4.82;;
79454;SDS011;68900;52.134;5.420;2023-12-04T15:20:59;9.45;;;4.03;;
79454;SDS011;68900;52.134;5.420;2023-12-04T15:23:29;11.65;;;4.68;;
79454;SDS011;68900;52.134;5.420;2023-12-04T15:25:56;10.55;;;4.95;;
79454;SDS011;68900;52.134;5.420;2023-12-04T15:28:23;9.18;;;4.65;;
79454;SDS011;68900;52.134;5.420;2023-12-04T15:30:51;11.43;;;5.22;;
79454;SDS011;68900;52.134;5.420;2023-12-04T15:33:17;11.88;;;5.22;;
79454;SDS011;68900;52.134;5.420;2023-12-04T15:35:47;12.80;;;5.85;;
79454;SDS011;68900;52.134;5.420;2023-12-04T15:38:13;11.40;;;5.15;;
79454;SDS011;68900;52.134;5.420;2023-12-04T15:40:46;13.27;;;5.22;;
79454;SDS011;68900;52.134;5.420;2023-12-04T15:43:13;12.18;;;5.43;;
79454;SDS011;68900;52.134;5.420;2023-12-04T15:45:40;11.27;;;4.75;;
79454;SDS011;68900;52.134;5.420;2023-12-04T15:48:34;8.15;;;3.85;;
79454;SDS011;68900;52.134;5.420;2023-12-04T15:56:01;9.27;;;4.80;;
79454;SDS011;68900;52.134;5.420;2023-12-04T15:59:13;11.05;;;4.88;;
79454;SDS011;68900;52.134;5.420;2023-12-04T16:01:52;9.75;;;5.18;;
79454;SDS011;68900;52.134;5.420;2023-12-04T16:04:33;11.00;;;4.32;;
79454;SDS011;68900;52.134;5.420;2023-12-04T16:07:45;10.73;;;4.60;;
79454;SDS011;68900;52.134;5.420;2023-12-04T16:10:40;10.25;;;5.20;;
79454;SDS011;68900;52.134;5.420;2023-12-04T16:13:19;12.70;;;5.45;;
79454;SDS011;68900;52.134;5.420;2023-12-04T16:15:46;14.73;;;5.65;;
79454;SDS011;68900;52.134;5.420;2023-12-04T16:18:15;11.95;;;5.55;;
79454;SDS011;68900;52.134;5.420;2023-12-04T16:20:44;13.25;;;6.20;;
79454;SDS011;68900;52.134;5.420;2023-12-04T16:23:13;10.95;;;5.00;;
79454;SDS011;68900;52.134;5.420;2023-12-04T16:25:40;11.70;;;5.32;;
79454;SDS011;68900;52.134;5.420;2023-12-04T16:28:07;9.90;;;5.60;;
79454;SDS011;68900;52.134;5.420;2023-12-04T16:30:38;11.73;;;6.00;;
79454;SDS011;68900;52.134;5.420;2023-12-04T16:33:07;12.85;;;5.65;;
79454;SDS011;68900;52.134;5.420;2023-12-04T16:35:35;16.45;;;5.85;;
79454;SDS011;68900;52.134;5.420;2023-12-04T16:38:02;11.32;;;5.68;;
79454;SDS011;68900;52.134;5.420;2023-12-04T16:40:33;10.73;;;5.28;;
79454;SDS011;68900;52.134;5.420;2023-12-04T16:43:02;12.93;;;5.68;;
79454;SDS011;68900;52.134;5.420;2023-12-04T16:45:29;11.90;;;4.82;;
79454;SDS011;68900;52.134;5.420;2023-12-04T16:47:56;14.18;;;5.85;;
79454;SDS011;68900;52.134;5.420;2023-12-04T16:50:23;9.90;;;5.30;;
79454;SDS011;68900;52.134;5.420;2023-12-04T16:52:50;13.20;;;5.65;;
79454;SDS011;68900;52.134;5.420;2023-12-04T16:55:18;12.23;;;5.85;;
79454;SDS011;68900;52.134;5.420;2023-12-04T16:57:45;11.57;;;6.32;;
79454;SDS011;68900;52.134;5.420;2023-12-04T17:00:15;11.32;;;5.22;;
79454;SDS011;68900;52.134;5.420;2023-12-04T17:02:42;12.85;;;5.93;;
79454;SDS011;68900;52.134;5.420;2023-12-04T17:05:09;12.05;;;6.63;;
79454;SDS011;68900;52.134;5.420;2023-12-04T17:07:55;10.15;;;5.30;;
79454;SDS011;68900;52.134;5.420;2023-12-04T17:10:22;12.77;;;6.38;;
79454;SDS011;68900;52.134;5.420;2023-12-04T17:12:49;12.68;;;6.10;;
79454;SDS011;68900;52.134;5.420;2023-12-04T17:15:15;11.93;;;6.60;;
79454;SDS011;68900;52.134;5.420;2023-12-04T17:17:42;11.77;;;6.13;;
79454;SDS011;68900;52.134;5.420;2023-12-04T17:20:10;11.82;;;6.00;;
79454;SDS011;68900;52.134;5.420;2023-12-04T17:22:44;12.07;;;6.13;;
79454;SDS011;68900;52.134;5.420;2023-12-04T17:25:11;12.13;;;6.82;;
79454;SDS011;68900;52.134;5.420;2023-12-04T17:27:38;13.73;;;6.13;;
79454;SDS011;68900;52.134;5.420;2023-12-04T17:30:05;11.02;;;5.82;;
79454;SDS011;68900;52.134;5.420;2023-12-04T17:32:32;12.77;;;6.40;;
79454;SDS011;68900;52.134;5.420;2023-12-04T17:34:59;11.68;;;6.15;;
79454;SDS011;68900;52.134;5.420;2023-12-04T17:37:25;12.57;;;6.22;;
79454;SDS011;68900;52.134;5.420;2023-12-04T17:39:53;12.18;;;6.50;;
79454;SDS011;68900;52.134;5.420;2023-12-04T18:49:34;12.57;;;6.90;;
79454;SDS011;68900;52.134;5.420;2023-12-04T18:52:13;13.45;;;7.28;;
79454;SDS011;68900;52.134;5.420;2023-12-04T19:01:24;14.82;;;6.32;;
79454;SDS011;68900;52.134;5.420;2023-12-04T19:03:53;12.90;;;7.13;;
79454;SDS011;68900;52.134;5.420;2023-12-04T19:06:21;13.40;;;6.68;;
79454;SDS011;68900;52.134;5.420;2023-12-04T19:08:48;11.27;;;6.75;;
79454;SDS011;68900;52.134;5.420;2023-12-04T19:11:15;12.73;;;6.88;;
79454;SDS011;68900;52.134;5.420;2023-12-04T19:13:42;10.88;;;6.57;;
79454;SDS011;68900;52.134;5.420;2023-12-04T19:16:08;12.45;;;6.03;;
79454;SDS011;68900;52.134;5.420;2023-12-04T19:18:35;12.18;;;7.38;;
79454;SDS011;68900;52.134;5.420;2023-12-04T19:21:04;13.50;;;7.53;;
79454;SDS011;68900;52.134;5.420;2023-12-04T19:23:31;14.85;;;7.25;;
79454;SDS011;68900;52.134;5.420;2023-12-04T19:25:57;13.13;;;7.28;;
79454;SDS011;68900;52.134;5.420;2023-12-04T19:28:24;15.93;;;8.18;;
79454;SDS011;68900;52.134;5.420;2023-12-04T19:30:55;12.88;;;7.75;;
79454;SDS011;68900;52.134;5.420;2023-12-04T19:33:22;13.75;;;8.10;;
79454;SDS011;68900;52.134;5.420;2023-12-04T19:35:55;16.38;;;9.07;;
79454;SDS011;68900;52.134;5.420;2023-12-04T19:38:22;14.38;;;7.85;;
79454;SDS011;68900;52.134;5.420;2023-12-04T19:40:49;12.88;;;7.50;;
79454;SDS011;68900;52.134;5.420;2023-12-04T19:43:16;14.13;;;8.13;;
79454;SDS011;68900;52.134;5.420;2023-12-04T19:45:49;14.10;;;8.05;;
79454;SDS011;68900;52.134;5.420;2023-12-04T19:51:20;14.25;;;7.68;;
79454;SDS011;68900;52.134;5.420;2023-12-04T19:57:57;15.98;;;8.60;;
79454;SDS011;68900;52.134;5.420;2023-12-04T20:00:24;16.95;;;8.55;;
79454;SDS011;68900;52.134;5.420;2023-12-04T20:02:51;16.17;;;9.05;;
79454;SDS011;68900;52.134;5.420;2023-12-04T20:05:17;13.93;;;8.80;;
79454;SDS011;68900;52.134;5.420;2023-12-04T20:07:45;16.95;;;8.80;;
79454;SDS011;68900;52.134;5.420;2023-12-04T20:10:11;19.00;;;8.98;;
79454;SDS011;68900;52.134;5.420;2023-12-04T20:12:38;15.70;;;8.43;;
79454;SDS011;68900;52.134;5.420;2023-12-04T20:15:04;17.08;;;8.80;;
79454;SDS011;68900;52.134;5.420;2023-12-04T20:17:33;14.52;;;8.43;;
79454;SDS011;68900;52.134;5.420;2023-12-04T20:20:00;14.73;;;8.88;;
79454;SDS011;68900;52.134;5.420;2023-12-04T20:22:26;16.45;;;8.75;;
79454;SDS011;68900;52.134;5.420;2023-12-04T20:24:53;14.80;;;7.97;;
79454;SDS011;68900;52.134;5.420;2023-12-04T20:27:19;15.68;;;8.75;;
79454;SDS011;68900;52.134;5.420;2023-12-04T20:29:46;16.75;;;9.10;;
79454;SDS011;68900;52.134;5.420;2023-12-04T20:32:12;15.20;;;8.43;;
79454;SDS011;68900;52.134;5.420;2023-12-04T20:34:39;14.77;;;8.77;;
79454;SDS011;68900;52.134;5.420;2023-12-04T20:37:05;15.30;;;8.90;;
79454;SDS011;68900;52.134;5.420;2023-12-04T20:39:32;17.63;;;8.95;;
79454;SDS011;68900;52.134;5.420;2023-12-04T20:42:02;16.58;;;9.88;;
79454;SDS011;68900;52.134;5.420;2023-12-04T20:44:29;18.17;;;9.27;;
79454;SDS011;68900;52.134;5.420;2023-12-04T20:46:56;15.48;;;9.23;;
79454;SDS011;68900;52.134;5.420;2023-12-04T20:49:23;17.17;;;8.80;;
79454;SDS011;68900;52.134;5.420;2023-12-04T20:51:52;15.48;;;8.82;;
79454;SDS011;68900;52.134;5.420;2023-12-04T20:54:19;14.93;;;8.48;;
79454;SDS011;68900;52.134;5.420;2023-12-04T20:56:46;14.00;;;7.55;;
79454;SDS011;68900;52.134;5.420;2023-12-04T20:59:12;18.30;;;9.75;;
79454;SDS011;68900;52.134;5.420;2023-12-04T21:01:39;15.75;;;9.02;;
79454;SDS011;68900;52.134;5.420;2023-12-04T21:04:06;17.40;;;9.50;;
79454;SDS011;68900;52.134;5.420;2023-12-04T21:06:33;16.85;;;9.45;;
79454;SDS011;68900;52.134;5.420;2023-12-04T21:09:01;15.52;;;9.00;;
79454;SDS011;68900;52.134;5.420;2023-12-04T21:11:27;16.40;;;9.32;;
79454;SDS011;68900;52.134;5.420;2023-12-04T21:13:54;19.20;;;10.25;;
79454;SDS011;68900;52.134;5.420;2023-12-04T21:16:23;16.65;;;9.07;;
79454;SDS011;68900;52.134;5.420;2023-12-04T21:18:49;16.75;;;9.63;;
79454;SDS011;68900;52.134;5.420;2023-12-04T21:21:17;14.23;;;8.45;;
79454;SDS011;68900;52.134;5.420;2023-12-04T21:23:46;15.68;;;8.93;;